Time;durP1;ratioP1;P1;durP2;ratioP2;P2;SDS_P1;SDS_P2;PMS_P1;PMS_P2;Temp;Humidity;BMP_temperature;BMP_pressure;BME280_temperature;BME280_humidity;BME280_pressure;Samples;Min_cycle;Max_cycle;Signal;HPM_P1;HPM_P2
2022/09/08 00:00:44;;;;;;;10.43;6.20;;;;;;;18.65;72.65;100831.66;5048072;28;20370;-82
2022/09/08 00:03:13;;;;;;;9.00;6.28;;;;;;;18.58;72.68;100837.63;5047063;28;20123;-81
2022/09/08 00:05:50;;;;;;;9.45;5.88;;;;;;;18.69;71.83;100828.50;5047746;28;20060;-81
2022/09/08 00:08:20;;;;;;;11.57;6.50;;;;;;;18.71;71.30;100836.22;5045464;28;20075;-81
2022/09/08 00:10:47;;;;;;;10.63;5.80;;;;;;;18.67;71.16;100834.91;5029153;28;20108;-81
2022/09/08 00:13:13;;;;;;;8.20;5.55;;;;;;;18.75;70.74;100832.22;5047615;28;20112;-79
2022/09/08 00:15:38;;;;;;;10.10;5.95;;;;;;;18.67;70.80;100840.16;5041594;28;20116;-79
2022/09/08 00:18:06;;;;;;;10.63;6.28;;;;;;;18.58;70.70;100845.50;5038056;28;20072;-81
2022/09/08 00:20:31;;;;;;;9.02;5.75;;;;;;;18.63;70.37;100846.75;5026469;28;20061;-81
2022/09/08 00:22:56;;;;;;;8.70;5.45;;;;;;;18.60;70.73;100844.50;5041487;28;20468;-82
2022/09/08 00:25:22;;;;;;;7.72;5.00;;;;;;;18.50;72.84;100845.53;5013358;28;20044;-81
2022/09/08 00:27:47;;;;;;;9.73;5.28;;;;;;;18.47;73.26;100817.03;5029391;28;20111;-81
2022/09/08 00:30:13;;;;;;;9.35;5.50;;;;;;;18.41;75.59;100828.22;5047105;28;20484;-82
2022/09/08 00:32:38;;;;;;;10.35;5.30;;;;;;;18.39;76.52;100824.13;5046873;28;20043;-82
2022/09/08 00:35:07;;;;;;;9.25;4.90;;;;;;;18.13;78.50;100827.13;5022523;28;20099;-84
2022/09/08 00:37:33;;;;;;;9.13;4.95;;;;;;;18.15;79.62;100819.88;5045107;28;20082;-83
2022/09/08 00:39:58;;;;;;;8.70;5.00;;;;;;;18.12;80.28;100809.72;5047186;28;20550;-84
2022/09/08 00:42:24;;;;;;;10.75;5.10;;;;;;;18.18;79.88;100811.63;5046397;28;20032;-85
2022/09/08 00:44:49;;;;;;;9.85;5.43;;;;;;;18.07;81.12;100807.63;5038488;28;20021;-84
2022/09/08 00:47:22;;;;;;;9.40;5.10;;;;;;;17.89;83.21;100810.53;5028870;28;20029;-84
2022/09/08 00:50:00;;;;;;;10.25;5.15;;;;;;;18.01;81.37;100810.97;5038945;28;20412;-85
2022/09/08 00:52:33;;;;;;;13.02;5.50;;;;;;;18.01;81.72;100809.16;5028070;28;20071;-83
2022/09/08 00:54:59;;;;;;;11.85;5.63;;;;;;;17.90;82.63;100801.69;5029768;28;20125;-84
2022/09/08 00:57:24;;;;;;;11.18;5.43;;;;;;;17.84;83.37;100785.81;5028502;28;20509;-85
2022/09/08 00:59:50;;;;;;;7.80;5.18;;;;;;;17.82;83.62;100791.22;5047606;28;20072;-84
2022/09/08 01:02:25;;;;;;;9.55;5.45;;;;;;;17.93;84.24;100806.56;5029087;28;20032;-84
2022/09/08 01:04:58;;;;;;;9.65;5.35;;;;;;;17.99;82.98;100816.38;5028849;28;20040;-84
2022/09/08 01:17:17;;;;;;;8.68;5.05;;;;;;;17.69;84.96;100804.06;5031190;28;20086;-85
2022/09/08 01:19:47;;;;;;;13.50;5.75;;;;;;;17.16;86.67;100751.38;5034755;28;20040;-83
2022/09/08 01:22:53;;;;;;;10.52;5.63;;;;;;;17.46;86.64;100773.34;5029980;28;20041;-83
2022/09/08 01:25:28;;;;;;;11.88;6.15;;;;;;;17.46;86.02;100773.34;5011764;28;20143;-85
2022/09/08 01:28:38;;;;;;;12.05;5.93;;;;;;;17.62;85.74;100787.38;5029078;28;20035;-89
2022/09/08 01:31:21;;;;;;;9.52;5.63;;;;;;;17.52;85.83;100772.66;5018544;28;20033;-89
2022/09/08 01:33:57;;;;;;;10.88;5.82;;;;;;;17.35;86.78;100768.47;5023059;28;20124;-88
2022/09/08 01:36:23;;;;;;;10.35;6.00;;;;;;;17.12;87.58;100744.00;5022772;28;20044;-87
2022/09/08 01:38:49;;;;;;;10.73;6.32;;;;;;;17.29;88.47;100766.53;5046333;28;20361;-86
2022/09/08 01:41:16;;;;;;;10.63;6.75;;;;;;;17.11;88.88;100747.63;5027716;28;20663;-85
2022/09/08 01:43:46;;;;;;;12.17;7.13;;;;;;;16.80;89.22;100727.38;5045543;28;20029;-86
2022/09/08 01:46:12;;;;;;;11.77;7.25;;;;;;;17.12;88.04;100734.34;5029042;28;20028;-87
2022/09/08 01:48:40;;;;;;;12.13;6.95;;;;;;;17.09;89.44;100754.81;5045793;28;20024;-85
2022/09/08 01:51:08;;;;;;;12.07;6.78;;;;;;;17.12;88.94;100764.97;5016866;28;20059;-85
2022/09/08 01:53:34;;;;;;;12.95;7.40;;;;;;;16.98;89.65;100722.78;5045338;28;20110;-85
2022/09/08 01:55:59;;;;;;;10.50;6.50;;;;;;;16.96;89.73;100724.72;5028557;28;20419;-86
2022/09/08 01:58:25;;;;;;;12.32;7.00;;;;;;;17.05;89.10;100743.06;5018212;28;20030;-86
2022/09/08 02:00:51;;;;;;;10.65;6.85;;;;;;;16.97;89.16;100721.13;5037813;28;20036;-86
2022/09/08 02:03:16;;;;;;;11.73;7.13;;;;;;;16.87;89.16;100731.00;5043913;28;20036;-86
2022/09/08 02:05:43;;;;;;;14.20;7.93;;;;;;;17.00;91.04;100746.19;5015963;28;20128;-87
2022/09/08 02:08:10;;;;;;;11.85;7.10;;;;;;;16.92;90.51;100712.16;5032983;28;20071;-87
2022/09/08 02:10:36;;;;;;;11.40;6.90;;;;;;;17.12;90.37;100717.78;5032160;28;20028;-87
2022/09/08 02:13:03;;;;;;;10.80;7.25;;;;;;;17.02;90.20;100706.69;5032611;28;20029;-86
2022/09/08 02:15:30;;;;;;;12.23;7.10;;;;;;;17.01;90.69;100715.53;5049077;28;20051;-87
2022/09/08 02:17:57;;;;;;;12.32;6.45;;;;;;;17.11;90.35;100726.66;5046099;28;20099;-86
2022/09/08 02:20:26;;;;;;;10.32;6.90;;;;;;;17.13;90.22;100724.66;5031472;28;20033;-85
2022/09/08 02:22:53;;;;;;;10.95;6.22;;;;;;;17.09;90.33;100707.63;5047339;28;20124;-86
2022/09/08 02:25:19;;;;;;;11.35;6.60;;;;;;;16.94;89.61;100713.59;5037248;28;20119;-86
2022/09/08 02:27:45;;;;;;;10.60;6.70;;;;;;;17.02;90.26;100714.56;5049842;28;20024;-86
2022/09/08 02:30:11;;;;;;;11.93;6.00;;;;;;;17.06;89.20;100714.06;5032048;28;20388;-86
2022/09/08 02:32:37;;;;;;;11.10;6.30;;;;;;;16.91;90.33;100706.06;5021006;28;20061;-86
2022/09/08 02:35:02;;;;;;;12.10;6.88;;;;;;;16.76;90.85;100702.53;5035656;28;20564;-86
2022/09/08 02:37:28;;;;;;;11.75;6.60;;;;;;;16.84;90.63;100689.41;5025573;28;20036;-85
2022/09/08 02:39:53;;;;;;;11.25;6.47;;;;;;;16.85;91.73;100701.50;5039493;28;20032;-84
2022/09/08 02:42:19;;;;;;;7.40;5.57;;;;;;;16.98;91.06;100699.19;5031124;28;20083;-85
2022/09/08 02:44:44;;;;;;;11.57;6.53;;;;;;;16.97;91.03;100676.59;5048076;28;20036;-84
2022/09/08 02:47:10;;;;;;;9.02;6.20;;;;;;;16.98;91.07;100673.00;5031118;28;20124;-84
2022/09/08 02:49:36;;;;;;;10.70;6.03;;;;;;;17.03;90.80;100658.53;5049520;28;20033;-84
2022/09/08 02:52:01;;;;;;;10.82;6.07;;;;;;;16.99;90.41;100652.84;5031652;28;20048;-84
2022/09/08 02:54:27;;;;;;;11.80;5.60;;;;;;;16.96;90.98;100656.59;5030993;28;20029;-84
2022/09/08 02:56:52;;;;;;;11.38;5.90;;;;;;;16.89;92.24;100666.13;5029279;28;20532;-84
2022/09/08 02:59:18;;;;;;;10.48;6.05;;;;;;;16.81;92.54;100668.00;5049491;28;20040;-84
2022/09/08 03:01:43;;;;;;;11.95;6.05;;;;;;;16.83;92.65;100660.75;5030725;28;20107;-84
2022/09/08 03:04:10;;;;;;;10.65;5.72;;;;;;;16.83;92.41;100669.44;5030940;28;20041;-83
2022/09/08 03:06:37;;;;;;;9.13;5.70;;;;;;;16.85;92.41;100670.06;5048116;28;20057;-84
2022/09/08 03:09:03;;;;;;;10.38;5.85;;;;;;;16.83;93.19;100660.75;5049200;28;20090;-84
2022/09/08 03:11:28;;;;;;;9.27;5.88;;;;;;;16.80;92.75;100654.03;5048605;28;20106;-85
2022/09/08 03:13:54;;;;;;;9.00;5.97;;;;;;;16.75;93.10;100643.28;5030601;28;20488;-83
2022/09/08 03:16:20;;;;;;;9.30;5.68;;;;;;;16.76;93.48;100639.69;5031433;28;20143;-84
2022/09/08 03:18:45;;;;;;;9.60;4.93;;;;;;;16.92;92.77;100638.81;5030073;28;20388;-84
2022/09/08 03:21:13;;;;;;;8.43;4.22;;;;;;;16.92;92.44;100634.38;5031112;28;20024;-84
2022/09/08 03:23:39;;;;;;;8.48;4.30;;;;;;;17.01;91.79;100647.44;5047333;28;20032;-83
2022/09/08 03:26:09;;;;;;;8.63;4.00;;;;;;;16.80;91.61;100648.81;5049284;28;20020;-84
2022/09/08 03:28:35;;;;;;;8.57;3.88;;;;;;;16.80;90.97;100651.44;5029965;28;20027;-84
2022/09/08 03:31:00;;;;;;;6.38;3.67;;;;;;;16.82;90.66;100659.94;5047730;28;20028;-84
2022/09/08 03:33:28;;;;;;;8.00;4.15;;;;;;;16.72;91.41;100657.53;5032005;23;20129;-84
2022/09/08 03:35:54;;;;;;;7.05;4.05;;;;;;;16.49;90.79;100638.25;4980810;28;20038;-84
2022/09/08 03:38:19;;;;;;;7.70;4.43;;;;;;;16.55;89.80;100653.28;4974146;28;20023;-84
2022/09/08 03:40:45;;;;;;;10.27;5.70;;;;;;;16.36;90.03;100638.78;4973496;28;20037;-84
2022/09/08 03:43:11;;;;;;;8.45;6.03;;;;;;;16.46;89.86;100649.91;4980692;28;20030;-83
2022/09/08 03:45:42;;;;;;;11.25;7.03;;;;;;;16.47;90.91;100645.47;4962406;28;20065;-85
2022/09/08 03:48:16;;;;;;;11.95;6.57;;;;;;;16.48;91.32;100677.72;4991462;28;20045;-86
2022/09/08 03:50:43;;;;;;;10.18;6.47;;;;;;;16.40;90.90;100655.81;4987374;28;20109;-86
2022/09/08 03:53:09;;;;;;;9.07;6.20;;;;;;;16.43;90.99;100668.53;4979222;28;20399;-86
2022/09/08 03:55:39;;;;;;;9.23;6.20;;;;;;;16.37;91.01;100655.31;4986047;28;20037;-86
2022/09/08 03:58:05;;;;;;;8.93;6.28;;;;;;;16.30;90.94;100662.19;4982245;28;20364;-87
2022/09/08 04:00:33;;;;;;;11.73;6.75;;;;;;;16.17;92.00;100654.84;4986950;28;20045;-84
2022/09/08 04:03:01;;;;;;;11.68;6.13;;;;;;;16.02;92.23;100646.03;4974921;28;20033;-83
2022/09/08 04:05:31;;;;;;;10.00;5.97;;;;;;;16.02;91.88;100646.03;4983071;28;20026;-83
2022/09/08 04:07:56;;;;;;;8.27;5.80;;;;;;;16.28;92.41;100685.09;4988137;28;20025;-83
2022/09/08 04:10:22;;;;;;;8.40;5.57;;;;;;;16.17;92.44;100681.84;4987944;28;20030;-84
2022/09/08 04:12:47;;;;;;;9.00;6.05;;;;;;;16.25;93.55;100688.03;4986915;28;20586;-84
2022/09/08 04:15:14;;;;;;;9.75;6.03;;;;;;;16.25;93.24;100683.63;4988039;28;20039;-87
2022/09/08 04:17:40;;;;;;;8.38;5.85;;;;;;;16.29;93.44;100682.31;4983434;28;20038;-86
2022/09/08 04:20:07;;;;;;;11.63;5.95;;;;;;;16.31;93.28;100682.16;4960044;28;20529;-84
2022/09/08 04:22:57;;;;;;;8.65;5.40;;;;;;;16.26;93.96;100687.88;4984910;28;20026;-86
2022/09/08 04:25:23;;;;;;;10.27;5.60;;;;;;;16.25;93.30;100703.75;4975544;28;20030;-85
2022/09/08 04:27:48;;;;;;;9.02;5.45;;;;;;;16.19;93.67;100694.75;4965979;28;20153;-85
2022/09/08 04:30:14;;;;;;;11.95;5.90;;;;;;;16.15;93.88;100683.78;4987224;28;20595;-85
2022/09/08 04:32:40;;;;;;;8.18;5.30;;;;;;;16.21;94.28;100674.47;4985523;28;20054;-85
2022/09/08 04:35:06;;;;;;;9.68;5.03;;;;;;;16.24;94.02;100671.53;4967979;28;20033;-84
2022/09/08 04:37:34;;;;;;;8.80;4.88;;;;;;;16.22;93.58;100663.00;4970553;28;20026;-85
2022/09/08 04:40:01;;;;;;;9.57;4.93;;;;;;;16.25;93.95;100664.50;4979108;28;20064;-85
2022/09/08 04:42:28;;;;;;;9.93;4.63;;;;;;;16.26;93.35;100668.75;4970919;28;20026;-84
2022/09/08 04:44:53;;;;;;;8.70;4.53;;;;;;;16.23;93.99;100669.91;4987033;28;20026;-85
2022/09/08 04:47:18;;;;;;;8.65;4.60;;;;;;;16.17;93.61;100670.53;4974974;28;20374;-85
2022/09/08 04:49:49;;;;;;;10.25;4.78;;;;;;;16.16;94.01;100674.13;4971788;28;20076;-85
2022/09/08 04:52:17;;;;;;;9.68;4.35;;;;;;;16.16;94.10;100666.28;4990445;28;20490;-85
2022/09/08 04:54:43;;;;;;;11.27;4.95;;;;;;;16.15;93.80;100682.97;4974456;28;20041;-83
2022/09/08 04:57:08;;;;;;;8.77;4.47;;;;;;;16.18;94.29;100682.66;4973150;28;20459;-83
2022/09/08 04:59:34;;;;;;;8.77;4.60;;;;;;;16.21;94.06;100695.41;4978605;28;20080;-83
2022/09/08 05:01:59;;;;;;;9.07;5.05;;;;;;;16.29;93.71;100698.03;4987636;28;20031;-82
2022/09/08 05:04:25;;;;;;;10.73;5.47;;;;;;;16.39;93.27;100705.69;4967673;28;20041;-82
2022/09/08 05:06:50;;;;;;;8.77;5.03;;;;;;;16.39;92.91;100706.50;4973825;28;20014;-82
2022/09/08 05:09:16;;;;;;;10.95;5.80;;;;;;;16.39;92.53;100705.69;4968233;28;20045;-82
2022/09/08 05:11:41;;;;;;;8.73;5.38;;;;;;;16.41;92.67;100701.94;4973125;28;20393;-84
2022/09/08 05:14:07;;;;;;;10.07;5.30;;;;;;;16.31;93.73;100706.53;4981247;28;20109;-85
2022/09/08 05:16:33;;;;;;;9.40;5.40;;;;;;;16.41;92.83;100704.56;4972723;28;20390;-85
2022/09/08 05:19:02;;;;;;;10.10;6.00;;;;;;;16.30;93.92;100707.50;4969758;28;20018;-84
2022/09/08 05:21:30;;;;;;;10.98;6.22;;;;;;;16.33;92.61;100701.94;4984201;28;20057;-84
2022/09/08 05:23:56;;;;;;;9.13;5.65;;;;;;;16.48;92.42;100714.34;4982480;28;20022;-85
2022/09/08 05:26:23;;;;;;;8.68;5.93;;;;;;;16.35;93.38;100704.41;4987595;28;20438;-85
2022/09/08 05:28:49;;;;;;;10.15;6.00;;;;;;;16.37;92.91;100698.00;4984213;28;20030;-86
2022/09/08 05:31:18;;;;;;;8.70;5.50;;;;;;;16.22;93.72;100704.88;4974639;28;20497;-84
2022/09/08 05:33:44;;;;;;;10.80;5.43;;;;;;;16.09;93.42;100705.38;4987946;28;20096;-83
2022/09/08 05:36:34;;;;;;;10.00;5.70;;;;;;;16.17;94.11;100707.16;4972947;28;20042;-83
2022/09/08 05:39:01;;;;;;;11.50;5.75;;;;;;;16.06;94.08;100694.44;4975139;28;20474;-84
2022/09/08 05:41:30;;;;;;;10.15;5.97;;;;;;;15.97;94.57;100711.09;4979836;28;20029;-83
2022/09/08 05:43:57;;;;;;;10.63;6.30;;;;;;;16.04;95.08;100696.38;4970867;28;20073;-84
2022/09/08 05:46:27;;;;;;;9.68;6.05;;;;;;;16.15;94.26;100706.53;4979675;28;20026;-83
2022/09/08 05:48:57;;;;;;;9.93;6.38;;;;;;;16.15;94.13;100696.06;4991033;28;20030;-83
2022/09/08 05:51:23;;;;;;;9.98;6.13;;;;;;;16.25;93.96;100704.56;4981761;28;20042;-83
2022/09/08 05:53:49;;;;;;;10.98;6.20;;;;;;;16.24;93.38;100702.94;4979875;28;20110;-83
2022/09/08 05:56:19;;;;;;;8.27;5.80;;;;;;;16.30;93.47;100707.50;4972864;28;20035;-83
2022/09/08 05:59:11;;;;;;;11.82;6.45;;;;;;;16.38;92.98;100710.09;4986304;28;20038;-83
2022/09/08 06:01:37;;;;;;;8.88;6.55;;;;;;;16.17;93.66;100705.41;4975298;28;20041;-83
2022/09/08 06:04:03;;;;;;;10.98;6.78;;;;;;;16.31;93.02;100709.13;4975017;28;20030;-82
2022/09/08 06:06:32;;;;;;;10.43;6.63;;;;;;;16.34;92.93;100702.75;4987941;28;20471;-83
2022/09/08 06:09:01;;;;;;;9.75;5.85;;;;;;;16.38;92.96;100707.50;4972618;28;20125;-83
2022/09/08 06:11:29;;;;;;;9.98;6.43;;;;;;;16.30;92.48;100712.75;4963286;28;20374;-83
2022/09/08 06:13:55;;;;;;;8.95;6.05;;;;;;;16.32;92.98;100716.00;4974150;28;20125;-83
2022/09/08 06:16:21;;;;;;;11.40;6.25;;;;;;;16.17;94.14;100707.16;4975573;28;20574;-83
2022/09/08 06:18:48;;;;;;;9.95;6.30;;;;;;;16.30;93.79;100717.16;4972729;28;20065;-83
2022/09/08 06:21:40;;;;;;;10.25;6.75;;;;;;;16.37;93.58;100718.94;4959451;28;20058;-84
2022/09/08 06:24:06;;;;;;;12.85;6.97;;;;;;;16.25;93.42;100704.56;4975448;28;20034;-84
2022/09/08 06:27:08;;;;;;;12.73;7.57;;;;;;;16.24;94.70;100718.63;4978246;28;20033;-82
2022/09/08 06:32:12;;;;;;;12.80;8.53;;;;;;;16.27;93.92;100718.28;5008966;28;20406;-78
2022/09/08 06:34:44;;;;;;;12.80;10.18;;;;;;;16.20;93.89;100712.09;5010118;28;20022;-77
2022/09/08 06:37:35;;;;;;;11.07;9.88;;;;;;;16.19;94.42;100716.50;5008809;28;20436;-78
2022/09/08 06:40:24;;;;;;;11.38;10.18;;;;;;;16.18;94.74;100717.50;5007866;28;20026;-77
2022/09/08 06:42:55;;;;;;;13.32;10.38;;;;;;;16.03;95.12;100715.69;4993957;28;20049;-77
2022/09/08 06:45:26;;;;;;;11.52;10.38;;;;;;;16.00;95.95;100721.22;5005416;28;20108;-77
2022/09/08 06:48:04;;;;;;;11.63;10.43;;;;;;;16.09;95.68;100720.25;5006203;28;20462;-78
2022/09/08 06:50:33;;;;;;;11.73;9.90;;;;;;;15.99;96.03;100709.13;5007254;28;20462;-78
2022/09/08 06:53:02;;;;;;;11.40;10.20;;;;;;;16.08;95.98;100710.78;5006755;28;20073;-78
2022/09/08 06:55:46;;;;;;;11.68;9.82;;;;;;;16.13;95.94;100716.34;5003759;28;20033;-78
2022/09/08 06:58:29;;;;;;;12.02;9.65;;;;;;;16.02;96.05;100716.69;5004980;28;20037;-78
2022/09/08 07:00:57;;;;;;;11.40;9.80;;;;;;;16.16;95.30;100722.06;5009708;28;20485;-78
2022/09/08 07:03:55;;;;;;;11.07;9.77;;;;;;;16.18;95.87;100719.28;5004263;28;20069;-78
2022/09/08 07:06:24;;;;;;;12.03;8.93;;;;;;;16.16;94.86;100721.25;5007681;28;20394;-78
2022/09/08 07:08:59;;;;;;;9.98;8.60;;;;;;;16.22;95.20;100725.81;5002150;28;20288;-78
2022/09/08 07:11:37;;;;;;;11.85;8.93;;;;;;;16.20;94.36;100712.09;5001455;28;20512;-79
2022/09/08 07:14:02;;;;;;;10.70;9.40;;;;;;;16.22;94.78;100725.81;5005672;28;20034;-78
2022/09/08 07:16:53;;;;;;;11.50;10.23;;;;;;;16.16;96.32;100731.69;5007493;28;20037;-79
2022/09/08 07:19:49;;;;;;;12.52;10.05;;;;;;;16.32;95.00;100730.88;5007212;28;20040;-79
2022/09/08 07:22:23;;;;;;;12.70;10.40;;;;;;;16.25;95.40;100730.75;5008180;28;20029;-80
2022/09/08 07:24:52;;;;;;;14.40;11.27;;;;;;;16.26;95.18;100719.28;5007830;28;20489;-79
2022/09/08 07:27:18;;;;;;;12.73;11.50;;;;;;;16.22;95.20;100725.81;5006935;28;20083;-79
2022/09/08 07:29:50;;;;;;;12.10;10.85;;;;;;;16.31;95.47;100740.53;5007811;28;20478;-79
2022/09/08 07:32:36;;;;;;;12.30;11.00;;;;;;;16.36;95.15;100748.72;5006450;28;20076;-80
2022/09/08 07:35:05;;;;;;;13.27;11.07;;;;;;;16.37;94.74;100734.66;5008120;28;20092;-79
2022/09/08 07:37:47;;;;;;;11.88;10.68;;;;;;;16.32;96.33;100731.69;5002461;28;20073;-79
2022/09/08 07:40:17;;;;;;;12.07;9.60;;;;;;;16.35;95.04;100736.63;5008832;28;20482;-79
2022/09/08 07:42:48;;;;;;;10.32;9.27;;;;;;;16.35;95.45;100736.63;5007886;28;20444;-79
2022/09/08 07:45:14;;;;;;;11.30;9.35;;;;;;;16.35;94.60;100728.78;5006977;28;20022;-78
2022/09/08 07:48:04;;;;;;;12.00;9.73;;;;;;;16.44;95.26;100735.63;5006014;28;20193;-79
2022/09/08 07:50:56;;;;;;;11.90;9.85;;;;;;;16.43;95.40;100722.69;5008831;28;20109;-78
2022/09/08 07:53:39;;;;;;;13.55;9.25;;;;;;;16.50;95.33;100728.91;5008289;28;20509;-78
2022/09/08 07:56:37;;;;;;;11.13;8.68;;;;;;;16.56;94.97;100728.22;5006528;28;20026;-78
2022/09/08 07:59:21;;;;;;;;;;;;;;;16.65;93.94;100722.00;5008837;28;20029;-78
2022/09/08 08:01:55;;;;;;;13.02;8.75;;;;;;;16.60;95.12;100728.72;4997028;28;19921;-78
2022/09/08 08:04:42;;;;;;;14.13;9.27;;;;;;;16.64;94.74;100732.66;5006835;28;20684;-78
2022/09/08 08:07:13;;;;;;;12.82;9.80;;;;;;;16.66;94.95;100738.53;5008988;28;20341;-78
2022/09/08 08:09:56;;;;;;;13.50;9.98;;;;;;;16.66;95.07;100728.06;5005967;28;20071;-78
2022/09/08 08:12:38;;;;;;;11.55;9.88;;;;;;;16.77;94.56;100734.78;5006952;28;20056;-77
2022/09/08 08:15:31;;;;;;;11.38;10.18;;;;;;;16.82;94.50;100730.69;5017606;28;20561;-77
2022/09/08 08:18:19;;;;;;;11.32;10.13;;;;;;;16.87;96.28;100736.22;5007465;28;20026;-78
2022/09/08 08:20:51;;;;;;;11.98;10.60;;;;;;;16.86;94.70;100734.59;5007912;28;20675;-78
2022/09/08 08:23:37;;;;;;;12.65;10.25;;;;;;;16.72;94.78;100737.91;5008908;28;20107;-78
2022/09/08 08:26:19;;;;;;;14.10;10.60;;;;;;;16.84;94.20;100741.78;5006823;28;20029;-77
2022/09/08 08:28:45;;;;;;;11.35;10.15;;;;;;;16.71;94.47;100734.47;5007733;28;20053;-78
2022/09/08 08:31:32;;;;;;;12.45;9.98;;;;;;;16.84;93.48;100741.78;5005373;28;20048;-78
2022/09/08 08:34:05;;;;;;;10.88;9.43;;;;;;;16.90;92.89;100751.59;5004205;28;20029;-77
2022/09/08 08:36:35;;;;;;;11.30;9.80;;;;;;;16.88;92.81;100734.44;5006463;28;20045;-79
2022/09/08 08:39:21;;;;;;;12.18;9.20;;;;;;;16.99;92.80;100750.59;5008106;28;20026;-78
2022/09/08 08:41:46;;;;;;;12.23;9.38;;;;;;;17.08;92.61;100742.69;5006211;28;20034;-78
2022/09/08 08:44:53;;;;;;;14.27;9.52;;;;;;;17.19;91.96;100745.75;5007808;28;20037;-78
2022/09/08 08:47:23;;;;;;;12.65;9.07;;;;;;;17.28;91.86;100737.88;5003472;28;20160;-78
2022/09/08 08:50:17;;;;;;;10.90;8.43;;;;;;;17.30;91.54;100752.44;5005254;28;20378;-77
2022/09/08 08:53:05;;;;;;;10.13;8.27;;;;;;;17.35;89.78;100744.88;5006453;28;20034;-78
2022/09/08 08:55:43;;;;;;;9.73;8.35;;;;;;;17.33;90.99;100741.63;4992935;28;20042;-78
2022/09/08 08:58:36;;;;;;;11.07;8.70;;;;;;;17.41;89.70;100749.44;5007676;28;20117;-77
2022/09/08 09:01:13;;;;;;;11.18;9.02;;;;;;;17.44;90.08;100741.25;5007572;28;20440;-77
2022/09/08 09:03:51;;;;;;;10.77;8.90;;;;;;;17.39;89.29;100751.44;5005593;28;20382;-78
2022/09/08 09:06:36;;;;;;;11.93;9.47;;;;;;;17.38;89.31;100749.81;5001665;28;20492;-78
2022/09/08 09:09:31;;;;;;;12.00;9.98;;;;;;;17.42;88.88;100750.25;5004796;28;20025;-78
2022/09/08 09:12:24;;;;;;;10.73;8.52;;;;;;;17.45;87.74;100755.97;5004330;28;20025;-78
2022/09/08 09:15:11;;;;;;;11.77;9.77;;;;;;;17.47;87.81;100759.25;5006281;28;20038;-78
2022/09/08 09:17:48;;;;;;;13.30;9.98;;;;;;;17.46;88.26;100752.38;5005507;28;20037;-78
2022/09/08 09:20:15;;;;;;;11.75;9.63;;;;;;;17.56;88.45;100751.34;5006362;28;20061;-78
2022/09/08 09:23:13;;;;;;;11.15;10.05;;;;;;;17.60;88.97;100757.84;5003823;28;20053;-79
2022/09/08 09:25:54;;;;;;;11.30;9.43;;;;;;;17.60;88.64;100752.63;5006122;28;20014;-78
2022/09/08 09:28:19;;;;;;;10.27;7.35;;;;;;;17.68;86.51;100749.97;5003974;28;20044;-78
2022/09/08 09:31:20;;;;;;;10.75;7.72;;;;;;;17.73;86.25;100752.91;5006340;28;20402;-78
2022/09/08 09:34:07;;;;;;;9.90;7.95;;;;;;;17.81;85.18;100746.78;4923126;29;20054;-79
2022/09/08 09:37:02;;;;;;;9.07;7.35;;;;;;;17.96;85.22;100747.69;4921726;29;20526;-79
2022/09/08 09:39:46;;;;;;;8.45;7.00;;;;;;;18.00;84.43;100743.69;4926613;29;20411;-78
2022/09/08 09:42:27;;;;;;;8.35;6.45;;;;;;;18.03;84.45;100738.91;4927163;29;20027;-78
2022/09/08 09:45:01;;;;;;;8.90;5.60;;;;;;;18.15;82.74;100741.94;4919742;29;20725;-79
2022/09/08 09:47:39;;;;;;;8.30;6.38;;;;;;;18.20;83.17;100744.03;4921816;29;20047;-79
2022/09/08 09:50:16;;;;;;;7.95;6.28;;;;;;;18.31;82.85;100741.00;4927342;29;20079;-79
2022/09/08 09:53:07;;;;;;;7.05;4.32;;;;;;;18.31;82.10;100741.00;4914951;29;20032;-79
2022/09/08 09:56:07;;;;;;;7.63;4.60;;;;;;;18.18;81.54;100730.25;4918696;29;20028;-79
2022/09/08 09:59:10;;;;;;;5.75;4.60;;;;;;;18.22;81.85;100736.81;4924358;29;20043;-79
2022/09/08 10:02:08;;;;;;;7.43;5.38;;;;;;;18.34;82.58;100745.06;4908784;29;20027;-79
2022/09/08 10:04:42;;;;;;;8.35;4.80;;;;;;;18.37;80.78;100744.72;4921888;29;20120;-80
2022/09/08 10:07:39;;;;;;;7.82;5.28;;;;;;;18.24;80.83;100740.09;4921533;29;20286;-79
2022/09/08 10:10:26;;;;;;;9.70;5.27;;;;;;;18.26;81.33;100743.34;4953744;28;20041;-79
2022/09/08 10:12:52;;;;;;;9.00;5.10;;;;;;;18.26;80.82;100738.09;5006865;28;20026;-79
2022/09/08 10:15:40;;;;;;;8.77;5.45;;;;;;;18.43;81.42;100747.44;5006995;28;20045;-79
2022/09/08 10:18:25;;;;;;;9.27;5.20;;;;;;;18.53;81.51;100745.38;5006196;28;20026;-79
2022/09/08 10:21:18;;;;;;;7.13;4.93;;;;;;;18.67;81.08;100737.69;5006409;28;20026;-80
2022/09/08 10:23:49;;;;;;;9.02;4.72;;;;;;;18.85;78.40;100738.19;5006780;28;20022;-81
2022/09/08 10:26:43;;;;;;;7.13;4.00;;;;;;;18.88;77.34;100732.56;5004934;28;20117;-80
2022/09/08 10:29:14;;;;;;;5.28;3.15;;;;;;;18.95;76.95;100741.38;5008538;28;20022;-80
2022/09/08 10:32:05;;;;;;;6.93;3.20;;;;;;;18.98;75.49;100733.13;5010049;28;20046;-80
2022/09/08 10:34:57;;;;;;;6.13;3.38;;;;;;;19.13;75.10;100732.28;5002692;28;20049;-79
2022/09/08 10:37:57;;;;;;;7.10;3.47;;;;;;;19.35;76.45;100739.22;4998676;28;20034;-80
2022/09/08 10:40:41;;;;;;;8.32;3.10;;;;;;;19.50;74.33;100732.13;5007647;28;20474;-81
2022/09/08 10:43:47;;;;;;;7.57;2.90;;;;;;;19.68;73.35;100736.19;5010207;28;20052;-80
2022/09/08 10:46:41;;;;;;;6.13;2.67;;;;;;;19.76;73.39;100725.53;4980660;28;20046;-80
2022/09/08 10:49:18;;;;;;;7.18;2.50;;;;;;;19.72;72.53;100730.34;4974059;28;20118;-80
2022/09/08 10:51:46;;;;;;;6.50;2.47;;;;;;;19.85;72.15;100732.31;4974964;28;20508;-79
2022/09/08 10:54:28;;;;;;;;;;;;;;;19.94;74.52;100719.81;4986745;28;20173;-80
2022/09/08 10:56:57;;;;;;;7.18;2.60;;;;;;;19.78;70.63;100713.00;4986310;28;19922;-80
2022/09/08 11:00:01;;;;;;;7.88;2.90;;;;;;;20.01;70.20;100716.25;4985679;28;20034;-79
2022/09/08 11:02:34;;;;;;;6.88;2.65;;;;;;;20.19;71.42;100725.53;4966397;28;20050;-79
2022/09/08 11:04:59;;;;;;;7.50;2.67;;;;;;;20.23;70.58;100732.03;4958194;28;20039;-80
2022/09/08 11:07:43;;;;;;;7.13;2.60;;;;;;;20.34;70.54;100724.41;4967994;28;20043;-80
2022/09/08 11:10:38;;;;;;;8.30;2.90;;;;;;;20.42;71.70;100726.09;4958527;28;20149;-80
2022/09/08 11:14:01;;;;;;;6.22;2.50;;;;;;;20.56;69.15;100727.84;4936823;28;20039;-79
2022/09/08 11:16:32;;;;;;;8.30;2.35;;;;;;;20.76;68.69;100725.34;4909996;29;20611;-79
2022/09/08 11:19:39;;;;;;;7.32;2.20;;;;;;;20.83;69.13;100733.28;4906576;29;20127;-79
2022/09/08 11:22:18;;;;;;;6.25;1.95;;;;;;;20.86;65.02;100722.34;4901527;29;20051;-79
2022/09/08 11:25:13;;;;;;;7.65;2.10;;;;;;;20.87;64.71;100723.97;4904956;29;20040;-79
2022/09/08 11:28:43;;;;;;;7.07;1.80;;;;;;;20.93;65.23;100739.00;4894931;29;20056;-79
2022/09/08 11:31:27;;;;;;;7.57;2.03;;;;;;;20.96;64.67;100728.06;4827843;29;20179;-79
2022/09/08 11:34:04;;;;;;;6.13;1.75;;;;;;;20.91;63.69;100725.19;4855655;29;20041;-79
2022/09/08 11:36:55;;;;;;;9.30;2.13;;;;;;;21.05;65.03;100720.81;4858329;29;20093;-79
2022/09/08 11:39:46;;;;;;;5.75;1.70;;;;;;;21.24;63.65;100724.53;4854413;29;20049;-79
2022/09/08 11:42:42;;;;;;;6.88;2.00;;;;;;;21.30;61.55;100718.50;4853390;29;20127;-79
2022/09/08 11:45:19;;;;;;;7.13;2.10;;;;;;;21.51;63.47;100715.72;4863515;29;20057;-79
2022/09/08 11:48:12;;;;;;;6.40;1.83;;;;;;;21.58;61.52;100710.47;4904764;29;20820;-81
2022/09/08 11:50:37;;;;;;;5.22;1.58;;;;;;;21.51;59.56;100718.38;4917652;29;20036;-79
2022/09/08 11:53:18;;;;;;;6.38;1.80;;;;;;;21.45;60.36;100717.34;4929049;29;20055;-79
2022/09/08 11:56:08;;;;;;;5.90;1.90;;;;;;;21.37;62.10;100719.34;4929105;29;20031;-80
2022/09/08 11:58:36;;;;;;;8.80;1.98;;;;;;;21.11;60.51;100725.31;4928854;29;20062;-80
2022/09/08 12:01:10;;;;;;;;;;;;;;;21.37;61.93;100711.41;4929045;29;20032;-78
2022/09/08 12:03:50;;;;;;;6.00;1.58;;;;;;;21.02;61.75;100716.75;4928246;29;20070;-79
2022/09/08 12:06:18;;;;;;;7.97;1.77;;;;;;;20.73;60.33;100709.91;4999868;28;20072;-80
2022/09/08 12:09:00;;;;;;;;;;;;;;;21.07;62.98;100703.78;5000829;28;20022;-80